createdAt,value
2023-11-24T00:01:40.965Z,102072.59
2023-11-24T00:04:07.747Z,102060.19
2023-11-24T00:06:34.419Z,102068.28
2023-11-24T00:09:01.088Z,102065.84
2023-11-24T00:11:27.828Z,102070.13
2023-11-24T00:13:55.160Z,102066.81
2023-11-24T00:16:22.558Z,102061.84
2023-11-24T00:18:49.410Z,102068.13
2023-11-24T00:21:16.349Z,102073.72
2023-11-24T00:23:42.959Z,102071.38
2023-11-24T00:26:09.671Z,102064.44
2023-11-24T00:28:40.582Z,102058.63
2023-11-24T00:31:08.467Z,102066.69
2023-11-24T00:33:38.837Z,102071.16
2023-11-24T00:36:07.420Z,102070.88
2023-11-24T00:38:34.909Z,102069.91
2023-11-24T00:41:01.469Z,102070.41
2023-11-24T00:43:28.141Z,102066.25
2023-11-24T00:45:54.860Z,102082.47
2023-11-24T00:50:49.270Z,102083.34
2023-11-24T00:53:15.896Z,102091.66
2023-11-24T00:55:42.422Z,102096.97
2023-11-24T00:58:09.977Z,102098.88
2023-11-24T01:00:39.403Z,102101.22
2023-11-24T01:03:06.608Z,102099.78
2023-11-24T01:05:34.415Z,102107.94
2023-11-24T01:08:01.186Z,102107.88
2023-11-24T01:10:28.799Z,102095.31
2023-11-24T01:12:55.446Z,102103.63
2023-11-24T01:15:22.790Z,102107.88
2023-11-24T01:17:49.803Z,102110.31
2023-11-24T01:20:19.748Z,102114.38
2023-11-24T01:22:47.102Z,102114.56
2023-11-24T01:25:13.741Z,102112.91
2023-11-24T01:27:40.392Z,102112.06
2023-11-24T01:30:09.092Z,102114.44
2023-11-24T01:32:36.138Z,102111.91
2023-11-24T01:35:03.449Z,102113.41
2023-11-24T01:37:30.002Z,102099.81
2023-11-24T01:39:57.053Z,102100.75
2023-11-24T01:42:23.878Z,102097.13
2023-11-24T01:44:50.363Z,102096.97
2023-11-24T01:47:17.471Z,102101.81
2023-11-24T01:49:46.892Z,102093.31
2023-11-24T01:52:15.170Z,102095.66
2023-11-24T01:54:42.622Z,102094.81
2023-11-24T01:57:10.790Z,102087.78
2023-11-24T01:59:37.446Z,102089.78
2023-11-24T02:02:05.311Z,102085.97
2023-11-24T02:04:31.992Z,102079.75
2023-11-24T02:06:59.018Z,102075.13
2023-11-24T02:09:28.294Z,102083.53
2023-11-24T02:11:54.951Z,102089.94
2023-11-24T02:14:21.535Z,102093.28
2023-11-24T02:16:48.088Z,102097.06
2023-11-24T02:19:15.860Z,102097.44
2023-11-24T02:21:42.461Z,102097.16
2023-11-24T02:24:09.722Z,102085.88
2023-11-24T02:26:36.323Z,102086.44
2023-11-24T02:29:02.913Z,102090.03
2023-11-24T02:31:29.465Z,102083.69
2023-11-24T02:33:56.172Z,102095.13
2023-11-24T02:36:25.112Z,102094.47
2023-11-24T02:38:51.825Z,102088.41
2023-11-24T02:41:18.428Z,102074.94
2023-11-24T02:43:46.130Z,102071.34
2023-11-24T02:46:13.967Z,102074.56
2023-11-24T02:48:42.524Z,102067.06
2023-11-24T02:51:09.712Z,102062.75
2023-11-24T02:53:40.562Z,102063.75
2023-11-24T02:56:09.032Z,102094.56
2023-11-24T02:58:35.769Z,102105.13
2023-11-24T03:01:02.652Z,102107.50
2023-11-24T03:03:29.779Z,102095.69
2023-11-24T03:05:56.917Z,102089.63
2023-11-24T03:08:25.050Z,102079.91
2023-11-24T03:10:51.863Z,102077.44
2023-11-24T03:13:20.845Z,102072.59
2023-11-24T03:15:47.426Z,102047.75
2023-11-24T03:18:14.472Z,102042.78
2023-11-24T03:20:42.139Z,102033.75
2023-11-24T03:23:08.769Z,102023.34
2023-11-24T03:25:35.769Z,102022.50
2023-11-24T03:28:02.562Z,102016.69
2023-11-24T03:30:29.236Z,102006.44
2023-11-24T03:32:55.864Z,101995.75
2023-11-24T03:35:24.171Z,101987.53
2023-11-24T03:37:50.748Z,101980.47
2023-11-24T03:40:17.616Z,101972.44
2023-11-24T03:42:44.284Z,101971.19
2023-11-24T03:45:11.317Z,101974.22
2023-11-24T03:47:39.933Z,101962.44
2023-11-24T03:50:06.943Z,101962.84
2023-11-24T03:52:34.073Z,101960.16
2023-11-24T03:55:01.505Z,101951.25
2023-11-24T03:57:28.087Z,101949.31
2023-11-24T03:59:54.700Z,101950.31
2023-11-24T04:02:21.300Z,101950.31
2023-11-24T04:04:47.818Z,101951.00
2023-11-24T04:07:17.165Z,101937.94
2023-11-24T04:09:43.983Z,101937.13
2023-11-24T04:12:10.644Z,101941.72
2023-11-24T04:14:37.181Z,101939.06
2023-11-24T04:17:03.962Z,101936.72
2023-11-24T04:19:30.542Z,101937.13
2023-11-24T04:21:57.186Z,101934.69
2023-11-24T04:24:24.773Z,101930.94
2023-11-24T04:26:51.409Z,101943.31
2023-11-24T04:29:17.987Z,101935.25
2023-11-24T04:31:45.487Z,101936.75
2023-11-24T04:34:12.299Z,101945.63
2023-11-24T04:36:39.034Z,101947.13
2023-11-24T04:39:05.734Z,101943.50
2023-11-24T04:41:32.832Z,101952.94
2023-11-24T04:43:59.534Z,101939.06
2023-11-24T04:46:26.214Z,101938.38
2023-11-24T04:48:53.140Z,101939.50
2023-11-24T04:51:19.763Z,101939.91
2023-11-24T04:53:46.626Z,101945.47
2023-11-24T04:56:13.268Z,101951.19
2023-11-24T04:58:39.857Z,101944.69
2023-11-24T05:01:06.881Z,101934.31
2023-11-24T05:03:33.593Z,101929.72
2023-11-24T05:06:00.178Z,101929.59
2023-11-24T05:08:26.704Z,101914.38
2023-11-24T05:10:53.369Z,101906.91
2023-11-24T05:13:19.888Z,101894.56
2023-11-24T05:15:47.620Z,101891.13
2023-11-24T05:18:14.366Z,101890.00
2023-11-24T05:20:40.961Z,101873.66
2023-11-24T05:23:08.006Z,101867.28
2023-11-24T05:25:34.602Z,101857.16
2023-11-24T05:28:01.228Z,101868.81
2023-11-24T05:30:27.767Z,101852.72
2023-11-24T05:32:54.350Z,101845.63
2023-11-24T05:35:20.897Z,101819.88
2023-11-24T05:37:47.485Z,101819.50
2023-11-24T05:40:14.246Z,101790.81
2023-11-24T05:42:40.834Z,101785.28
2023-11-24T05:45:09.301Z,101776.97
2023-11-24T05:47:36.653Z,101773.69
2023-11-24T05:50:09.377Z,101750.25
2023-11-24T05:52:35.916Z,101734.91
2023-11-24T05:55:02.541Z,101725.75
2023-11-24T05:57:29.478Z,101717.84
2023-11-24T05:59:56.630Z,101710.66
2023-11-24T06:02:23.623Z,101694.72
2023-11-24T06:04:50.383Z,101690.31
2023-11-24T06:07:17.797Z,101672.31
2023-11-24T06:09:45.345Z,101662.59
2023-11-24T06:12:12.149Z,101647.66
2023-11-24T06:14:39.459Z,101633.81
2023-11-24T06:17:08.069Z,101626.44
2023-11-24T06:19:34.821Z,101622.00
2023-11-24T06:22:01.555Z,101595.38
2023-11-24T06:24:28.092Z,101576.00
2023-11-24T06:26:54.892Z,101562.56
2023-11-24T06:29:21.656Z,101536.94
2023-11-24T06:31:48.197Z,101519.31
2023-11-24T06:34:15.236Z,101497.59
2023-11-24T06:36:41.822Z,101476.81
2023-11-24T06:39:11.454Z,101421.06
2023-11-24T06:41:38.808Z,101407.91
2023-11-24T06:44:05.777Z,101396.53
2023-11-24T06:46:32.598Z,101388.34
2023-11-24T06:49:00.925Z,101367.97
2023-11-24T06:51:27.537Z,101336.84
2023-11-24T06:53:54.062Z,101343.06
2023-11-24T06:56:20.770Z,101327.28
2023-11-24T06:58:47.505Z,101306.91
2023-11-24T07:01:14.586Z,101287.13
2023-11-24T07:03:41.593Z,101271.66
2023-11-24T07:06:08.430Z,101258.81
2023-11-24T07:08:35.020Z,101235.44
2023-11-24T07:11:01.608Z,101209.72
2023-11-24T07:13:28.537Z,101209.88
2023-11-24T07:15:56.628Z,101185.94
2023-11-24T07:18:24.491Z,101183.94
2023-11-24T07:20:51.423Z,101163.41
2023-11-24T07:23:17.982Z,101150.41
2023-11-24T07:25:46.296Z,101131.28
2023-11-24T07:28:13.155Z,101101.69
2023-11-24T07:30:39.730Z,101101.28
2023-11-24T07:33:09.297Z,101085.75
2023-11-24T07:35:37.625Z,101058.13
2023-11-24T07:38:04.484Z,101057.53
2023-11-24T07:40:31.681Z,101030.22
2023-11-24T07:42:58.333Z,101027.97
2023-11-24T07:45:26.194Z,101012.38
2023-11-24T07:47:52.859Z,100991.34
2023-11-24T07:50:20.126Z,100963.09
2023-11-24T07:52:47.891Z,100945.97
2023-11-24T07:55:17.527Z,100950.25
2023-11-24T07:57:44.230Z,100936.44
2023-11-24T08:00:14.107Z,100934.31
2023-11-24T08:02:41.774Z,100927.56
2023-11-24T08:05:09.604Z,100903.78
2023-11-24T08:07:37.703Z,100909.16
2023-11-24T08:10:05.713Z,100887.00
2023-11-24T08:12:32.291Z,100882.16
2023-11-24T08:14:59.746Z,100880.03
2023-11-24T08:17:26.374Z,100872.81
2023-11-24T08:19:53.184Z,100867.06
2023-11-24T08:22:19.777Z,100864.94
2023-11-24T08:24:46.318Z,100845.53
2023-11-24T08:27:13.019Z,100849.00
2023-11-24T08:29:39.544Z,100808.25
2023-11-24T08:32:07.604Z,100819.56
2023-11-24T08:34:34.324Z,100800.31
2023-11-24T08:37:03.547Z,100788.41
2023-11-24T08:39:30.222Z,100789.41
2023-11-24T08:41:56.764Z,100768.56
2023-11-24T08:44:25.813Z,100755.75
2023-11-24T08:46:53.442Z,100755.00
2023-11-24T08:49:20.169Z,100685.31
2023-11-24T08:51:46.824Z,100666.75
2023-11-24T08:54:13.391Z,100663.31
2023-11-24T08:56:40.138Z,100636.50
2023-11-24T08:59:09.882Z,100626.97
2023-11-24T09:01:38.063Z,100622.03
2023-11-24T09:04:05.311Z,100596.88
2023-11-24T09:06:39.017Z,100566.28
2023-11-24T09:09:10.148Z,100572.03
2023-11-24T09:11:36.733Z,101104.16
2023-11-24T09:14:07.067Z,101086.25
2023-11-24T09:16:34.057Z,101091.88
2023-11-24T09:19:01.437Z,101083.81
2023-11-24T09:21:32.145Z,101081.31
2023-11-24T09:23:58.709Z,101083.50
2023-11-24T09:26:25.550Z,101086.22
2023-11-24T09:28:52.278Z,101078.47
2023-11-24T09:31:18.986Z,101058.47
2023-11-24T09:33:45.780Z,101058.63
2023-11-24T09:36:13.408Z,101065.44
2023-11-24T09:38:40.868Z,101066.38
2023-11-24T09:41:16.137Z,101053.69
2023-11-24T09:43:43.753Z,101052.69
2023-11-24T09:46:11.936Z,101046.09
2023-11-24T09:48:45.951Z,101054.28
2023-11-24T09:51:18.114Z,101044.25
2023-11-24T09:53:44.884Z,101042.75
2023-11-24T09:56:11.459Z,101047.25
2023-11-24T09:58:38.219Z,101042.16
2023-11-24T10:01:17.494Z,101027.88
2023-11-24T10:03:50.505Z,101034.97
2023-11-24T10:06:17.600Z,101030.84
2023-11-24T10:08:46.779Z,101023.56
2023-11-24T10:11:15.454Z,101052.66
2023-11-24T10:13:49.228Z,101040.31
2023-11-24T10:16:17.487Z,101047.06
2023-11-24T10:18:44.607Z,101049.28
2023-11-24T10:21:23.113Z,101057.63
2023-11-24T10:23:57.326Z,101052.41
2023-11-24T10:26:26.735Z,101058.16
2023-11-24T10:28:53.768Z,101060.56
2023-11-24T10:31:20.972Z,101060.78
2023-11-24T10:33:48.131Z,101078.75
2023-11-24T10:36:17.756Z,101079.34
2023-11-24T10:38:47.443Z,101083.78
2023-11-24T10:41:24.443Z,101082.53
2023-11-24T10:43:52.322Z,101082.94
2023-11-24T10:46:23.700Z,101085.25
2023-11-24T10:49:46.034Z,101081.03
2023-11-24T10:52:28.607Z,101085.13
2023-11-24T10:55:06.875Z,101084.13
2023-11-24T10:57:33.693Z,101077.41
2023-11-24T11:00:00.811Z,101079.56
2023-11-24T11:02:28.822Z,101071.19
2023-11-24T11:05:11.019Z,101067.06
2023-11-24T11:08:15.225Z,101078.31
2023-11-24T11:10:47.289Z,101079.06
2023-11-24T11:13:16.708Z,101099.13
2023-11-24T11:15:43.997Z,101130.16
2023-11-24T11:18:12.277Z,101142.78
2023-11-24T11:20:41.751Z,101143.50
2023-11-24T11:23:10.371Z,101146.66
2023-11-24T11:25:36.927Z,101158.97
2023-11-24T11:28:18.744Z,101189.34
2023-11-24T11:30:48.048Z,101224.59
2023-11-24T11:33:14.596Z,101266.16
2023-11-24T11:35:45.791Z,101310.22
2023-11-24T11:38:15.152Z,101380.44
2023-11-24T11:40:45.517Z,101417.09
2023-11-24T11:43:16.675Z,101478.06
2023-11-24T11:45:50.172Z,101079.94
2023-11-24T11:48:18.090Z,101099.13
2023-11-24T11:50:59.619Z,101101.16
2023-11-24T11:53:30.061Z,101129.16
2023-11-24T11:55:57.538Z,101152.69
2023-11-24T11:58:25.973Z,101182.41
2023-11-24T12:00:54.626Z,101211.41
2023-11-24T12:03:24.227Z,101252.50
2023-11-24T12:05:55.097Z,101278.97
2023-11-24T12:08:25.008Z,101304.41
2023-11-24T12:10:51.521Z,101336.31
2023-11-24T12:13:18.118Z,101368.66
2023-11-24T12:15:45.067Z,101403.72
2023-11-24T12:18:16.057Z,101429.34
2023-11-24T12:20:43.050Z,101456.81
2023-11-24T12:23:10.350Z,101509.22
2023-11-24T12:25:40.625Z,101525.50
2023-11-24T12:28:10.670Z,101530.69
2023-11-24T12:30:42.918Z,101538.31
2023-11-24T12:33:21.405Z,101534.47
2023-11-24T12:35:52.554Z,101565.06
2023-11-24T12:38:20.448Z,101567.84
2023-11-24T12:40:48.657Z,101586.41
2023-11-24T12:43:16.909Z,101600.66
2023-11-24T12:45:43.968Z,101624.78
2023-11-24T12:48:20.826Z,101645.69
2023-11-24T12:50:48.750Z,101655.59
2023-11-24T12:53:15.683Z,101663.09
2023-11-24T12:55:42.963Z,101656.06
2023-11-24T12:58:10.189Z,101670.75
2023-11-24T13:00:38.121Z,101680.50
2023-11-24T13:03:06.530Z,101696.78
2023-11-24T13:05:35.225Z,101689.75
2023-11-24T13:08:02.075Z,101704.16
2023-11-24T13:10:31.391Z,101700.19
2023-11-24T13:12:59.516Z,101704.53
2023-11-24T13:15:26.941Z,101719.03
2023-11-24T13:17:54.720Z,101715.88
2023-11-24T13:20:22.228Z,101714.69
2023-11-24T13:22:49.689Z,101720.72
2023-11-24T13:25:17.546Z,101724.22
2023-11-24T13:27:44.344Z,101722.16
2023-11-24T13:30:12.763Z,101734.16
2023-11-24T13:32:40.857Z,101729.81
2023-11-24T13:35:11.093Z,101734.38
2023-11-24T13:37:40.748Z,101735.06
2023-11-24T13:40:10.828Z,101719.44
2023-11-24T13:42:37.471Z,101709.59
2023-11-24T13:45:04.624Z,101706.59
2023-11-24T13:47:33.096Z,101731.00
2023-11-24T13:49:59.778Z,101739.03
2023-11-24T13:52:29.092Z,101756.75
2023-11-24T13:54:55.751Z,101719.00
2023-11-24T13:57:22.285Z,101715.16
2023-11-24T13:59:48.866Z,101707.53
2023-11-24T14:02:16.530Z,101699.50
2023-11-24T14:04:43.333Z,101700.34
2023-11-24T14:07:10.931Z,101701.41
2023-11-24T14:09:41.207Z,101713.53
2023-11-24T14:12:10.445Z,101713.31
2023-11-24T14:14:37.333Z,101734.19
2023-11-24T14:17:05.050Z,101712.66
2023-11-24T14:19:31.744Z,101715.94
2023-11-24T14:22:00.546Z,101722.59
2023-11-24T14:24:27.458Z,101723.72
2023-11-24T14:26:55.498Z,101714.59
2023-11-24T14:29:22.157Z,101726.19
2023-11-24T14:31:48.809Z,101719.53
2023-11-24T14:34:19.194Z,101721.94
2023-11-24T14:36:46.652Z,101722.63
2023-11-24T14:39:32.795Z,101735.47
2023-11-24T14:42:00.125Z,101729.94
2023-11-24T14:44:27.080Z,101750.72
2023-11-24T14:46:54.188Z,101758.75
2023-11-24T14:49:21.374Z,101762.06
2023-11-24T14:51:49.749Z,101768.56
2023-11-24T14:54:17.589Z,101766.47
2023-11-24T14:56:49.537Z,101772.44
2023-11-24T14:59:16.529Z,101757.59
2023-11-24T15:01:44.365Z,101785.53
2023-11-24T15:04:18.697Z,101811.13
2023-11-24T15:06:51.595Z,101818.13
2023-11-24T15:09:19.952Z,101804.56
2023-11-24T15:11:49.124Z,101807.88
2023-11-24T15:14:16.351Z,101805.25
2023-11-24T15:17:09.559Z,101809.53
2023-11-24T15:19:36.371Z,101789.47
2023-11-24T15:22:07.797Z,101783.63
2023-11-24T15:24:34.824Z,101775.47
2023-11-24T15:27:02.205Z,101766.56
2023-11-24T15:29:28.846Z,101751.47
2023-11-24T15:31:55.557Z,101748.13
2023-11-24T15:34:25.674Z,101729.75
2023-11-24T15:36:52.250Z,101709.22
2023-11-24T15:40:16.911Z,101713.69
2023-11-24T15:42:43.912Z,101706.59
2023-11-24T15:45:12.744Z,101686.50
2023-11-24T15:47:40.648Z,101686.22
2023-11-24T15:50:10.191Z,101676.94
2023-11-24T15:52:38.709Z,101667.28
2023-11-24T15:55:08.720Z,101674.81
2023-11-24T15:57:35.394Z,101660.03
2023-11-24T16:00:11.784Z,101665.97
2023-11-24T16:02:39.067Z,101678.97
2023-11-24T16:05:07.799Z,101679.44
2023-11-24T16:07:35.758Z,101679.78
2023-11-24T16:10:15.139Z,101665.81
2023-11-24T16:12:45.897Z,101661.78
2023-11-24T16:15:17.316Z,101646.19
2023-11-24T16:17:46.772Z,101639.03
2023-11-24T16:20:16.672Z,101639.75
2023-11-24T16:22:43.265Z,101632.72
2023-11-24T16:25:10.542Z,101628.19
2023-11-24T16:27:42.319Z,101615.06
2023-11-24T16:30:10.325Z,101610.50
2023-11-24T16:32:36.941Z,101624.91
2023-11-24T16:35:09.392Z,101623.28
2023-11-24T16:37:36.801Z,101580.00
2023-11-24T16:40:04.442Z,101576.28
2023-11-24T16:42:31.330Z,101570.84
2023-11-24T16:44:58.590Z,101566.44
2023-11-24T16:47:25.188Z,101553.31
2023-11-24T16:49:51.961Z,101555.09
2023-11-24T16:52:18.526Z,101538.56
2023-11-24T16:54:45.082Z,101527.94
2023-11-24T16:57:11.774Z,101546.09
2023-11-24T16:59:38.330Z,101532.28
2023-11-24T17:02:05.409Z,101488.63
2023-11-24T17:04:33.961Z,101498.41
2023-11-24T17:07:00.847Z,101483.63
2023-11-24T17:09:28.166Z,101470.50
2023-11-24T17:11:56.745Z,101454.19
2023-11-24T17:14:25.049Z,101440.66
2023-11-24T17:16:52.408Z,101442.19
2023-11-24T17:19:19.284Z,101432.78
2023-11-24T17:21:46.039Z,101426.84
2023-11-24T17:24:13.162Z,101416.19
2023-11-24T17:26:41.218Z,101419.78
2023-11-24T17:29:14.175Z,101400.88
2023-11-24T17:31:43.770Z,101400.59
2023-11-24T17:34:13.125Z,101386.63
2023-11-24T17:36:40.031Z,101377.78
2023-11-24T17:39:10.312Z,101357.19
2023-11-24T17:41:37.381Z,101354.81
2023-11-24T17:44:05.609Z,101333.41
2023-11-24T17:46:32.250Z,101316.22
2023-11-24T17:48:58.867Z,101307.25
2023-11-24T17:51:26.655Z,101291.78
2023-11-24T17:53:54.591Z,101273.84
2023-11-24T17:56:21.254Z,101263.56
2023-11-24T17:58:47.923Z,101268.28
2023-11-24T18:01:15.562Z,101228.78
2023-11-24T18:03:42.278Z,101264.97
2023-11-24T18:06:10.092Z,101258.63
2023-11-24T18:08:37.110Z,101270.22
2023-11-24T18:11:03.912Z,101259.53
2023-11-24T18:13:30.930Z,101250.22
2023-11-24T18:15:57.718Z,101253.44
2023-11-24T18:18:24.415Z,101260.38
2023-11-24T18:20:50.975Z,101252.09
2023-11-24T18:23:17.610Z,101247.81
2023-11-24T18:25:44.255Z,101242.31
2023-11-24T18:28:12.680Z,101239.56
2023-11-24T18:30:39.410Z,101247.19
2023-11-24T18:33:06.098Z,101244.72
2023-11-24T18:35:35.289Z,101234.19
2023-11-24T18:38:01.856Z,101236.66
2023-11-24T18:40:28.487Z,101233.72
2023-11-24T18:42:55.170Z,101227.91
2023-11-24T18:45:21.821Z,101248.19
2023-11-24T18:47:49.901Z,101270.41
2023-11-24T18:50:16.679Z,101323.41
2023-11-24T18:52:43.539Z,101347.31
2023-11-24T18:55:10.136Z,101360.31
2023-11-24T18:57:36.754Z,101368.25
2023-11-24T19:00:04.208Z,101373.28
2023-11-24T19:02:31.090Z,101394.41
2023-11-24T19:04:57.826Z,101391.63
2023-11-24T19:07:24.599Z,101392.47
2023-11-24T19:09:52.689Z,101394.13
2023-11-24T19:12:19.305Z,101400.88
2023-11-24T19:14:45.908Z,101395.50
2023-11-24T19:17:12.648Z,101392.16
2023-11-24T19:19:39.216Z,101391.91
2023-11-24T19:22:06.163Z,101399.66
2023-11-24T19:24:32.854Z,101392.88
2023-11-24T19:26:59.511Z,101386.13
2023-11-24T19:29:26.084Z,101392.44
2023-11-24T19:31:52.751Z,101401.16
2023-11-24T19:34:19.342Z,101398.38
2023-11-24T19:36:45.912Z,101389.56
2023-11-24T19:39:12.520Z,101416.75
2023-11-24T19:41:39.114Z,101411.22
2023-11-24T19:44:05.738Z,101416.31
2023-11-24T19:46:32.492Z,101434.94
2023-11-24T19:48:59.180Z,101457.22
2023-11-24T19:51:25.810Z,101480.72
2023-11-24T19:53:54.413Z,101499.25
2023-11-24T19:56:21.326Z,101518.31
2023-11-24T19:58:47.889Z,101527.69
2023-11-24T20:01:22.055Z,101547.34
2023-11-24T20:03:49.404Z,101550.81
2023-11-24T20:06:17.075Z,101562.69
2023-11-24T20:08:43.665Z,101571.53
2023-11-24T20:11:10.242Z,101571.97
2023-11-24T20:13:36.816Z,101581.63
2023-11-24T20:16:03.629Z,101592.97
2023-11-24T20:18:32.083Z,101608.47
2023-11-24T20:20:58.761Z,101621.03
2023-11-24T20:23:26.167Z,101621.88
2023-11-24T20:25:53.019Z,101629.06
2023-11-24T20:28:19.839Z,101635.72
2023-11-24T20:30:46.497Z,101646.50
2023-11-24T20:33:13.209Z,101643.72
2023-11-24T20:35:39.796Z,101655.88
2023-11-24T20:38:06.413Z,101652.28
2023-11-24T20:40:33.057Z,101675.84
2023-11-24T20:43:04.023Z,101677.91
2023-11-24T20:45:30.664Z,101682.59
2023-11-24T20:47:57.346Z,101696.00
2023-11-24T20:50:23.937Z,101701.41
2023-11-24T20:52:50.689Z,101705.53
2023-11-24T20:55:18.295Z,101725.47
2023-11-24T20:57:45.102Z,101723.81
2023-11-24T21:00:12.799Z,101718.53
2023-11-24T21:02:40.713Z,101725.88
2023-11-24T21:05:12.967Z,101728.06
2023-11-24T21:07:40.753Z,101741.25
2023-11-24T21:10:07.709Z,101741.25
2023-11-24T21:12:34.372Z,101754.25
2023-11-24T21:15:00.944Z,101755.75
2023-11-24T21:17:27.924Z,101761.56
2023-11-24T21:19:54.735Z,101766.56
2023-11-24T21:22:21.728Z,101760.63
2023-11-24T21:24:51.232Z,101767.72
2023-11-24T21:27:18.889Z,101774.06
2023-11-24T21:29:45.532Z,101774.88
2023-11-24T21:32:12.161Z,101774.44
2023-11-24T21:34:38.848Z,101795.22
2023-11-24T21:37:09.236Z,101802.94
2023-11-24T21:39:36.651Z,101791.34
2023-11-24T21:42:03.840Z,101796.16
2023-11-24T21:44:30.515Z,101802.34
2023-11-24T21:46:57.188Z,101802.75
2023-11-24T21:49:23.908Z,101797.22
2023-11-24T21:51:50.596Z,101805.00
2023-11-24T21:54:17.122Z,101805.69
2023-11-24T21:56:43.669Z,101814.78
2023-11-24T21:59:10.345Z,101823.59
2023-11-24T22:01:37.246Z,101828.09
2023-11-24T22:04:04.373Z,101825.69
2023-11-24T22:06:36.003Z,101829.81
2023-11-24T22:09:05.503Z,101834.56
2023-11-24T22:11:33.457Z,101829.97
2023-11-24T22:14:00.316Z,101833.94
2023-11-24T22:16:27.185Z,101831.25
2023-11-24T22:18:53.804Z,101839.03
2023-11-24T22:21:21.312Z,101849.53
2023-11-24T22:23:48.091Z,101846.59
2023-11-24T22:26:22.065Z,101842.94
2023-11-24T22:28:50.690Z,101849.88
2023-11-24T22:31:17.600Z,101857.22
2023-11-24T22:33:44.598Z,101862.31
2023-11-24T22:36:19.566Z,101860.81
2023-11-24T22:38:47.162Z,101866.38
2023-11-24T22:41:22.006Z,101854.81
2023-11-24T22:43:54.961Z,101862.56
2023-11-24T22:46:26.835Z,101857.63
2023-11-24T22:48:54.324Z,101860.56
2023-11-24T22:51:23.171Z,101863.91
2023-11-24T22:53:50.575Z,101859.94
2023-11-24T22:56:21.220Z,101865.50
2023-11-24T22:58:56.165Z,101865.56
2023-11-24T23:01:25.380Z,101881.88
2023-11-24T23:03:56.927Z,101871.41
2023-11-24T23:06:25.072Z,101855.09
2023-11-24T23:08:53.286Z,101863.66
2023-11-24T23:11:21.155Z,101877.78
2023-11-24T23:13:51.777Z,101886.69
2023-11-24T23:16:21.462Z,101873.38
2023-11-24T23:18:48.814Z,101866.69
2023-11-24T23:21:18.919Z,101868.00
2023-11-24T23:23:47.568Z,101863.63
2023-11-24T23:26:14.233Z,101863.91
2023-11-24T23:28:41.053Z,101876.31
2023-11-24T23:31:12.783Z,101874.63
2023-11-24T23:33:41.817Z,101876.84
2023-11-24T23:36:13.992Z,101875.91
2023-11-24T23:38:41.560Z,101881.66
2023-11-24T23:41:08.200Z,101886.91
2023-11-24T23:43:35.849Z,101898.91
2023-11-24T23:46:03.349Z,101903.69
2023-11-24T23:48:30.416Z,101903.81
2023-11-24T23:50:57.092Z,101901.88
2023-11-24T23:53:25.362Z,101906.22
2023-11-24T23:55:53.245Z,101896.81
2023-11-24T23:58:20.750Z,101901.66
